De Leon, TX

11:09 PM CDT on September 15, 2014 (GMT -0500)
Olam Edible Nuts | Change Station
CLOSE
Current Station
Personal Weather Station
Location: Dublin, TX
Elevation: 1424 ft
Nearby Weather Stations

Elev 1424 ft 32.09 °N, 98.41 °W | Updated 6 minutes ago

Partly Cloudy
Partly Cloudy
74.1 °F
Feels Like 74 °F
N
2.2
Wind Variable Wind from ESE

Today
High -- | Low -- °F
--% Chance of Precip.
Yesterday
High -- | Low -- °F
Precip. -- in
7:18 AM 7:40 PM
Waning Gibbous, 49% visible
Pressure 30.19 in
Visibility 10.0 miles
Clouds Clear
Heat Index 74 °F
Dew Point 68 °F
Humidity 81%
Rainfall 0.00 in
Snow Depth Not available.
UV 0 out of 12
Pollen 10.10 out of 12
Air Quality Not available.
Flu Activity Not available.
METAR KSEP 160355Z AUTO 00000KT 10SM CLR 24/20 A3019 RMK AO2 T02360195

More Conditions Fewer Conditions

Pressure 30.19 in
Visibility 10.0 miles
Clouds Clear
Heat Index 74 °F
Dew Point 68 °F
Humidity 81%
Rainfall 0.00 in
Snow Depth Not available.
UV 0 out of 12
Pollen 10.10 out of 12
Air Quality Not available.
Flu Activity Not available.
METAR KSEP 160355Z AUTO 00000KT 10SM CLR 24/20 A3019 RMK AO2 T02360195

More Conditions Fewer Conditions

10-Day Weather Forecast

Almanac

Astronomy

Sep. 15, 2014 Rise Set
Actual Time 7:18 AM CDT 7:40 PM CDT
Civil Twilight 6:53 AM CDT 8:04 PM CDT
Nautical Twilight 6:24 AM CDT 8:33 PM CDT
Astronomical Twilight 5:55 AM CDT 9:02 PM CDT
Moon No Moon Rise 1:59 PM CDT (9/15)
Length of Visible Light 13h 11m
Length of Day
12h 21m
Tomorrow will be 1m 55s shorter.
Waning Gibbous, 49% of the Moon is Illuminated
Sep 16
Waning Gibbous
Sep 24
New
Oct 1
First Quarter
Oct 8
Full
Oct 15
Last Quarter

Today's Extremes

State Highs State Lows

Community

WunderPhotos

Upload Photos

1,753,695 photos uploaded!

Nearby

Snow Depth

Station Depth Elevation
No new snow has been reported.

Earthquake Activity

City Distance Mag. Time & Date
No recent earthquake activity has been reported nearby.
Minimum magnitude displayed is 2.5.

Coastal Water Temperatures

Place Temperature
No Stations Reporting

Nearby Weather Stations